createdAt,value
2019-02-26T00:00:45.005Z,3.00
2019-02-26T00:01:46.057Z,3.10
2019-02-26T00:02:41.729Z,3.10
2019-02-26T00:03:41.681Z,3.20
2019-02-26T00:04:41.648Z,3.60
2019-02-26T00:05:41.637Z,3.00
2019-02-26T00:06:42.459Z,3.00
2019-02-26T00:07:41.617Z,3.10
2019-02-26T00:08:41.609Z,3.20
2019-02-26T00:09:41.597Z,3.30
2019-02-26T00:10:41.591Z,2.90
2019-02-26T00:11:41.581Z,3.00
2019-02-26T00:12:41.583Z,3.00
2019-02-26T00:13:41.556Z,3.30
2019-02-26T00:14:43.042Z,3.20
2019-02-26T00:15:43.278Z,3.00
2019-02-26T00:16:42.382Z,3.00
2019-02-26T00:17:45.291Z,3.20
2019-02-26T00:18:42.660Z,3.00
2019-02-26T00:19:41.496Z,2.70
2019-02-26T00:20:41.495Z,3.50
2019-02-26T00:21:43.101Z,3.10
2019-02-26T00:22:41.493Z,3.40
2019-02-26T00:23:42.027Z,3.10
2019-02-26T00:24:42.614Z,3.10
2019-02-26T00:25:41.449Z,3.00
2019-02-26T00:26:43.481Z,3.30
2019-02-26T00:27:41.401Z,3.20
2019-02-26T00:28:42.040Z,3.30
2019-02-26T00:29:41.370Z,3.40
2019-02-26T00:30:42.492Z,3.40
2019-02-26T00:31:43.228Z,3.40
2019-02-26T00:32:41.351Z,3.60
2019-02-26T00:33:41.389Z,3.80
2019-02-26T00:34:41.335Z,3.70
2019-02-26T00:35:42.065Z,3.10
2019-02-26T00:36:41.341Z,3.50
2019-02-26T00:37:41.317Z,3.40
2019-02-26T00:38:42.673Z,3.30
2019-02-26T00:39:41.289Z,3.40
2019-02-26T00:40:43.132Z,3.00
2019-02-26T00:41:41.260Z,3.50
2019-02-26T00:42:41.246Z,3.10
2019-02-26T00:43:41.239Z,3.00
2019-02-26T00:44:41.251Z,3.50
2019-02-26T00:45:41.267Z,3.50
2019-02-26T00:46:41.195Z,3.20
2019-02-26T00:47:43.344Z,3.20
2019-02-26T00:48:43.022Z,3.00
2019-02-26T00:49:41.986Z,3.60
2019-02-26T00:50:41.183Z,3.50
2019-02-26T00:51:44.340Z,3.10
2019-02-26T00:52:41.128Z,3.10
2019-02-26T00:53:41.125Z,3.10
2019-02-26T00:54:41.112Z,3.40
2019-02-26T00:55:41.118Z,3.20
2019-02-26T00:56:41.181Z,3.00
2019-02-26T00:57:42.911Z,3.20
2019-02-26T00:58:42.214Z,3.20
2019-02-26T00:59:43.178Z,3.20
2019-02-26T01:00:41.061Z,3.20
2019-02-26T01:01:44.061Z,3.00
2019-02-26T01:02:42.010Z,3.00
2019-02-26T01:03:43.086Z,3.20
2019-02-26T01:04:41.490Z,3.00
2019-02-26T01:05:43.125Z,3.40
2019-02-26T01:06:40.992Z,2.90
2019-02-26T01:07:42.091Z,2.90
2019-02-26T01:08:43.093Z,2.90
2019-02-26T01:09:40.953Z,3.00
2019-02-26T01:10:41.596Z,3.10
2019-02-26T01:11:42.835Z,3.00
2019-02-26T01:12:42.492Z,3.20
2019-02-26T01:13:40.910Z,2.90
2019-02-26T01:14:41.388Z,3.00
2019-02-26T01:15:40.916Z,3.50
2019-02-26T01:16:42.082Z,3.00
2019-02-26T01:17:42.235Z,2.90
2019-02-26T01:18:42.163Z,2.90
2019-02-26T01:19:42.958Z,3.10
2019-02-26T01:20:40.845Z,3.00
2019-02-26T01:21:40.815Z,3.00
2019-02-26T01:22:42.856Z,2.80
2019-02-26T01:23:40.811Z,3.00
2019-02-26T01:24:40.791Z,3.10
2019-02-26T01:25:40.782Z,2.60
2019-02-26T01:26:42.815Z,2.80
2019-02-26T01:27:41.394Z,2.90
2019-02-26T01:28:44.131Z,3.00
2019-02-26T01:29:41.735Z,2.80
2019-02-26T01:30:40.726Z,2.90
2019-02-26T01:31:40.710Z,2.70
2019-02-26T01:32:40.729Z,3.10
2019-02-26T01:33:40.699Z,3.10
2019-02-26T01:34:42.561Z,3.10
2019-02-26T01:35:40.683Z,3.20
2019-02-26T01:36:42.536Z,2.80
2019-02-26T01:37:40.639Z,2.80
2019-02-26T01:38:41.750Z,2.90
2019-02-26T01:39:42.535Z,3.00
2019-02-26T01:40:43.604Z,3.00
2019-02-26T01:41:43.427Z,3.10
2019-02-26T01:42:40.584Z,2.90
2019-02-26T01:43:40.601Z,3.30
2019-02-26T01:44:42.214Z,3.10
2019-02-26T01:45:40.552Z,2.90
2019-02-26T01:46:41.171Z,3.20
2019-02-26T01:47:42.592Z,2.80
2019-02-26T01:48:41.275Z,2.90
2019-02-26T01:49:41.844Z,2.90
2019-02-26T01:50:40.735Z,2.70
2019-02-26T01:51:40.488Z,2.60
2019-02-26T01:52:40.483Z,3.00
2019-02-26T01:53:42.175Z,2.90
2019-02-26T01:54:40.474Z,2.70
2019-02-26T01:55:42.129Z,2.80
2019-02-26T01:56:40.452Z,2.70
2019-02-26T01:57:42.759Z,2.40
2019-02-26T01:58:40.432Z,2.80
2019-02-26T01:59:40.419Z,2.70
2019-02-26T02:00:40.823Z,3.00
2019-02-26T02:01:44.137Z,2.60
2019-02-26T02:02:40.382Z,2.80
2019-02-26T02:03:40.373Z,2.80
2019-02-26T02:04:41.273Z,3.00
2019-02-26T02:05:40.343Z,2.80
2019-02-26T02:06:41.334Z,3.00
2019-02-26T02:07:40.332Z,2.80
2019-02-26T02:08:43.387Z,2.70
2019-02-26T02:09:40.323Z,3.10
2019-02-26T02:10:40.304Z,2.60
2019-02-26T02:11:40.755Z,3.10
2019-02-26T02:12:41.493Z,2.60
2019-02-26T02:13:41.386Z,2.70
2019-02-26T02:14:40.261Z,2.90
2019-02-26T02:15:42.124Z,2.60
2019-02-26T02:16:40.235Z,2.80
2019-02-26T02:17:40.210Z,3.20
2019-02-26T02:18:43.649Z,2.80
2019-02-26T02:19:40.192Z,2.70
2019-02-26T02:20:40.200Z,3.00
2019-02-26T02:21:40.190Z,3.10
2019-02-26T02:22:42.087Z,3.10
2019-02-26T02:23:42.007Z,3.00
2019-02-26T02:24:41.827Z,2.70
2019-02-26T02:25:40.879Z,3.30
2019-02-26T02:26:41.104Z,3.60
2019-02-26T02:27:40.130Z,3.60
2019-02-26T02:28:40.108Z,3.70
2019-02-26T02:29:43.807Z,3.80
2019-02-26T02:30:40.093Z,3.00
2019-02-26T02:31:40.273Z,3.60
2019-02-26T02:32:40.095Z,3.20
2019-02-26T02:33:40.060Z,3.20
2019-02-26T02:34:42.934Z,3.40
2019-02-26T02:35:40.027Z,3.30
2019-02-26T02:36:40.010Z,3.40
2019-02-26T02:37:39.996Z,3.30
2019-02-26T02:38:39.997Z,3.10
2019-02-26T02:39:39.986Z,3.20
2019-02-26T02:40:40.835Z,3.20
2019-02-26T02:41:42.095Z,3.10
2019-02-26T02:42:42.550Z,2.90
2019-02-26T02:43:39.926Z,3.10
2019-02-26T02:44:42.202Z,3.30
2019-02-26T02:45:39.921Z,2.80
2019-02-26T02:46:42.474Z,3.40
2019-02-26T02:47:39.912Z,3.10
2019-02-26T02:48:39.896Z,3.10
2019-02-26T02:49:41.708Z,3.10
2019-02-26T02:50:39.865Z,3.10
2019-02-26T02:51:39.884Z,2.90
2019-02-26T02:52:39.885Z,3.30
2019-02-26T02:53:39.845Z,2.80
2019-02-26T02:54:41.228Z,3.00
2019-02-26T02:55:40.432Z,3.00
2019-02-26T02:56:41.883Z,2.90
2019-02-26T02:57:39.800Z,3.00
2019-02-26T02:58:41.680Z,2.90
2019-02-26T02:59:42.238Z,2.70
2019-02-26T03:00:39.749Z,2.60
2019-02-26T03:01:39.753Z,2.70
2019-02-26T03:02:42.775Z,2.70
2019-02-26T03:03:39.761Z,3.10
2019-02-26T03:04:39.712Z,3.00
2019-02-26T03:05:41.477Z,2.90
2019-02-26T03:06:39.708Z,2.90
2019-02-26T03:07:39.693Z,2.80
2019-02-26T03:08:42.104Z,2.70
2019-02-26T03:09:40.705Z,2.80
2019-02-26T03:10:42.333Z,3.30
2019-02-26T03:11:41.985Z,2.60
2019-02-26T03:12:39.622Z,2.90
2019-02-26T03:13:40.418Z,2.80
2019-02-26T03:14:41.859Z,2.80
2019-02-26T03:15:39.590Z,2.80
2019-02-26T03:16:42.467Z,2.60
2019-02-26T03:17:40.570Z,2.80
2019-02-26T03:18:39.557Z,3.00
2019-02-26T03:19:41.612Z,2.80
2019-02-26T03:20:40.410Z,2.90
2019-02-26T03:21:39.533Z,2.90
2019-02-26T03:22:42.177Z,2.80
2019-02-26T03:23:43.039Z,3.00
2019-02-26T03:24:39.502Z,2.90
2019-02-26T03:25:41.391Z,3.00
2019-02-26T03:26:39.489Z,2.80
2019-02-26T03:27:42.190Z,2.80
2019-02-26T03:28:39.964Z,3.10
2019-02-26T03:29:39.447Z,3.00
2019-02-26T03:30:43.921Z,2.80
2019-02-26T03:31:45.315Z,2.70
2019-02-26T03:32:44.806Z,2.80
2019-02-26T03:33:40.407Z,2.80
2019-02-26T03:34:39.432Z,2.90
2019-02-26T03:35:39.392Z,3.00
2019-02-26T03:36:40.810Z,3.00
2019-02-26T03:37:39.358Z,2.80
2019-02-26T03:38:40.882Z,3.10
2019-02-26T03:39:39.332Z,3.00
2019-02-26T03:40:39.339Z,2.70
2019-02-26T03:41:39.351Z,2.90
2019-02-26T03:42:41.605Z,3.10
2019-02-26T03:43:41.331Z,3.40
2019-02-26T03:44:39.283Z,2.90
2019-02-26T03:45:39.292Z,2.90
2019-02-26T03:46:39.266Z,3.10
2019-02-26T03:47:40.630Z,3.10
2019-02-26T03:48:39.243Z,3.00
2019-02-26T03:49:41.733Z,3.10
2019-02-26T03:50:39.219Z,3.10
2019-02-26T03:51:39.811Z,3.00
2019-02-26T03:52:39.212Z,3.10
2019-02-26T03:53:41.342Z,3.50
2019-02-26T03:54:40.219Z,3.60
2019-02-26T03:55:41.429Z,3.30
2019-02-26T03:56:39.174Z,3.10
2019-02-26T03:57:43.586Z,3.60
2019-02-26T03:58:40.129Z,3.00
2019-02-26T03:59:39.138Z,3.00
2019-02-26T04:00:41.687Z,3.10
2019-02-26T04:01:39.091Z,3.20
2019-02-26T04:02:42.244Z,2.80
2019-02-26T04:03:39.522Z,3.00
2019-02-26T04:04:39.072Z,2.90
2019-02-26T04:05:39.056Z,3.20
2019-02-26T04:06:41.095Z,3.00
2019-02-26T04:07:39.062Z,3.00
2019-02-26T04:08:39.022Z,3.50
2019-02-26T04:09:41.912Z,3.40
2019-02-26T04:10:40.004Z,3.50
2019-02-26T04:11:40.137Z,3.20
2019-02-26T04:12:42.337Z,3.10
2019-02-26T04:13:41.031Z,3.40
2019-02-26T04:14:38.962Z,3.40
2019-02-26T04:15:38.953Z,3.50
2019-02-26T04:16:41.105Z,3.50
2019-02-26T04:17:40.143Z,3.40
2019-02-26T04:18:38.936Z,3.40
2019-02-26T04:19:43.626Z,3.10
2019-02-26T04:20:43.441Z,3.60
2019-02-26T04:21:38.877Z,3.30
2019-02-26T04:22:42.311Z,3.80
2019-02-26T04:23:41.534Z,3.80
2019-02-26T04:24:38.850Z,3.60
2019-02-26T04:25:38.848Z,3.50
2019-02-26T04:26:38.815Z,3.80
2019-02-26T04:27:41.213Z,3.80
2019-02-26T04:28:40.188Z,3.40
2019-02-26T04:29:40.924Z,3.60
2019-02-26T04:30:39.373Z,3.80
2019-02-26T04:31:38.796Z,3.20
2019-02-26T04:32:40.895Z,3.30
2019-02-26T04:33:41.329Z,3.70
2019-02-26T04:34:38.746Z,3.40
2019-02-26T04:35:38.734Z,3.30
2019-02-26T04:36:40.282Z,3.20
2019-02-26T04:37:38.741Z,3.70
2019-02-26T04:38:38.707Z,3.60
2019-02-26T04:39:40.330Z,3.70
2019-02-26T04:40:40.848Z,3.50
2019-02-26T04:41:38.665Z,3.60
2019-02-26T04:42:40.941Z,3.40
2019-02-26T04:43:38.871Z,3.50
2019-02-26T04:44:38.637Z,3.80
2019-02-26T04:45:38.617Z,3.70
2019-02-26T04:46:39.478Z,3.20
2019-02-26T04:47:40.531Z,3.60
2019-02-26T04:48:38.605Z,2.90
2019-02-26T04:49:42.516Z,3.60
2019-02-26T04:50:39.429Z,3.20
2019-02-26T04:51:39.881Z,3.40
2019-02-26T04:52:41.221Z,3.70
2019-02-26T04:53:38.528Z,3.70
2019-02-26T04:54:39.503Z,3.30
2019-02-26T04:55:41.359Z,3.90
2019-02-26T04:56:40.135Z,3.60
2019-02-26T04:57:42.032Z,3.70
2019-02-26T04:58:41.879Z,3.70
2019-02-26T04:59:41.259Z,4.00
2019-02-26T05:00:39.466Z,3.90
2019-02-26T05:01:38.453Z,3.80
2019-02-26T05:02:38.454Z,3.70
2019-02-26T05:03:38.423Z,4.10
2019-02-26T05:04:40.020Z,4.10
2019-02-26T05:05:38.433Z,4.10
2019-02-26T05:06:38.394Z,3.70
2019-02-26T05:07:41.367Z,3.50
2019-02-26T05:08:40.329Z,3.60
2019-02-26T05:09:38.358Z,4.00
2019-02-26T05:10:38.378Z,4.30
2019-02-26T05:11:40.615Z,4.50
2019-02-26T05:12:40.164Z,4.40
2019-02-26T05:13:38.324Z,4.00
2019-02-26T05:14:38.299Z,4.40
2019-02-26T05:15:38.313Z,4.20
2019-02-26T05:16:40.393Z,3.80
2019-02-26T05:17:38.272Z,3.90
2019-02-26T05:18:38.279Z,3.60
2019-02-26T05:19:39.631Z,3.70
2019-02-26T05:20:42.089Z,3.70
2019-02-26T05:21:38.251Z,3.90
2019-02-26T05:22:38.215Z,4.00
2019-02-26T05:23:38.218Z,4.50
2019-02-26T05:24:41.400Z,4.30
2019-02-26T05:25:39.665Z,4.30
2019-02-26T05:26:38.178Z,3.70
2019-02-26T05:27:39.768Z,4.30
2019-02-26T05:28:40.868Z,3.90
2019-02-26T05:29:40.956Z,3.70
2019-02-26T05:30:40.259Z,3.80
2019-02-26T05:31:40.089Z,4.10
2019-02-26T05:32:38.114Z,4.30
2019-02-26T05:33:38.104Z,4.30
2019-02-26T05:34:39.832Z,4.00
2019-02-26T05:35:40.659Z,3.70
2019-02-26T05:36:42.017Z,4.10
2019-02-26T05:37:40.870Z,4.00
2019-02-26T05:38:38.062Z,4.40
2019-02-26T05:39:40.374Z,4.70
2019-02-26T05:40:40.384Z,4.20
2019-02-26T05:41:40.366Z,4.20
2019-02-26T05:42:38.013Z,4.60
2019-02-26T05:43:38.043Z,4.10
2019-02-26T05:44:37.983Z,4.40
2019-02-26T05:45:37.981Z,3.90
2019-02-26T05:46:37.953Z,4.30
2019-02-26T05:47:37.952Z,4.30
2019-02-26T05:48:39.988Z,4.30
2019-02-26T05:49:40.744Z,4.00
2019-02-26T05:50:38.454Z,4.30
2019-02-26T05:51:38.277Z,4.10
2019-02-26T05:52:37.923Z,3.80
2019-02-26T05:53:37.899Z,4.40
2019-02-26T05:54:37.885Z,4.40
2019-02-26T05:55:37.866Z,4.20
2019-02-26T05:56:40.765Z,4.50
2019-02-26T05:57:38.847Z,4.10
2019-02-26T05:58:39.440Z,4.30
2019-02-26T05:59:37.870Z,4.50
2019-02-26T06:00:37.812Z,4.40
2019-02-26T06:01:37.831Z,4.00
2019-02-26T06:02:40.122Z,3.90
2019-02-26T06:03:38.452Z,4.10
2019-02-26T06:04:40.781Z,4.10
2019-02-26T06:05:41.130Z,3.80
2019-02-26T06:06:38.743Z,4.50
2019-02-26T06:07:38.781Z,3.80
2019-02-26T06:08:39.251Z,3.90
2019-02-26T06:09:37.716Z,4.10
2019-02-26T06:10:37.719Z,4.00
2019-02-26T06:11:39.957Z,4.20
2019-02-26T06:12:40.382Z,3.90
2019-02-26T06:13:40.160Z,4.20
2019-02-26T06:14:39.389Z,4.30
2019-02-26T06:15:37.670Z,4.30
2019-02-26T06:16:37.659Z,4.80
2019-02-26T06:17:40.590Z,4.40
2019-02-26T06:18:41.170Z,4.40
2019-02-26T06:19:39.588Z,4.20
2019-02-26T06:20:37.615Z,4.40
2019-02-26T06:21:41.765Z,4.20
2019-02-26T06:22:38.584Z,3.80
2019-02-26T06:23:39.319Z,4.40
2019-02-26T06:24:38.130Z,4.20
2019-02-26T06:25:37.550Z,4.40
2019-02-26T06:26:38.102Z,3.90
2019-02-26T06:27:37.529Z,3.80
2019-02-26T06:28:40.193Z,3.90
2019-02-26T06:29:37.514Z,4.00
2019-02-26T06:30:37.517Z,4.20
2019-02-26T06:31:39.583Z,3.60
2019-02-26T06:32:39.688Z,4.00
2019-02-26T06:33:38.546Z,3.90
2019-02-26T06:34:37.461Z,3.50
2019-02-26T06:35:38.501Z,3.80
2019-02-26T06:36:37.457Z,3.90
2019-02-26T06:37:38.521Z,3.40
2019-02-26T06:38:37.401Z,3.80
2019-02-26T06:39:37.415Z,3.90
2019-02-26T06:40:39.345Z,3.50
2019-02-26T06:41:39.552Z,3.80
2019-02-26T06:42:38.135Z,3.80
2019-02-26T06:43:39.624Z,3.60
2019-02-26T06:44:38.829Z,3.40
2019-02-26T06:45:37.940Z,3.60
2019-02-26T06:46:38.329Z,4.10
2019-02-26T06:47:37.325Z,3.60
2019-02-26T06:48:37.299Z,3.50
2019-02-26T06:49:37.295Z,3.30
2019-02-26T06:50:38.762Z,3.20
2019-02-26T06:51:37.290Z,3.90
2019-02-26T06:52:39.765Z,3.50
2019-02-26T06:53:37.252Z,3.40
2019-02-26T06:54:37.246Z,3.50
2019-02-26T06:55:37.228Z,3.30
2019-02-26T06:56:41.427Z,3.40
2019-02-26T06:57:38.820Z,3.90
2019-02-26T06:58:38.169Z,3.30
2019-02-26T06:59:37.207Z,3.50
2019-02-26T07:00:37.178Z,3.60
2019-02-26T07:01:37.955Z,3.20
2019-02-26T07:02:37.153Z,3.10
2019-02-26T07:03:40.305Z,3.20
2019-02-26T07:04:37.129Z,3.20
2019-02-26T07:05:37.118Z,3.50
2019-02-26T07:06:38.045Z,3.50
2019-02-26T07:07:37.141Z,4.00
2019-02-26T07:08:37.091Z,5.10
2019-02-26T07:09:39.081Z,5.40
2019-02-26T07:10:37.061Z,4.10
2019-02-26T07:11:37.908Z,3.50
2019-02-26T07:12:38.756Z,3.70
2019-02-26T07:13:39.186Z,3.80
2019-02-26T07:14:37.036Z,3.80
2019-02-26T07:15:37.000Z,3.40
2019-02-26T07:16:39.804Z,3.40
2019-02-26T07:17:38.521Z,4.40
2019-02-26T07:18:36.988Z,4.50
2019-02-26T07:19:38.107Z,4.80
2019-02-26T07:20:39.895Z,5.10
2019-02-26T07:21:40.024Z,5.40
2019-02-26T07:22:36.925Z,4.40
2019-02-26T07:23:38.175Z,4.70
2019-02-26T07:24:38.535Z,4.50
2019-02-26T07:25:39.043Z,4.50
2019-02-26T07:26:38.629Z,4.60
2019-02-26T07:27:38.430Z,4.30
2019-02-26T07:28:36.862Z,4.50
2019-02-26T07:29:40.039Z,4.20
2019-02-26T07:30:39.771Z,4.70
2019-02-26T07:31:36.836Z,4.70
2019-02-26T07:32:38.356Z,4.60
2019-02-26T07:33:37.813Z,4.80
2019-02-26T07:34:36.821Z,4.70
2019-02-26T07:35:37.391Z,4.50
2019-02-26T07:36:36.772Z,4.20
2019-02-26T07:37:38.096Z,4.80
2019-02-26T07:38:41.125Z,4.90
2019-02-26T07:39:36.734Z,4.30
2019-02-26T07:40:38.481Z,4.60
2019-02-26T07:41:36.718Z,4.60
2019-02-26T07:42:37.393Z,4.70
2019-02-26T07:43:40.770Z,4.50
2019-02-26T07:44:36.716Z,5.10
2019-02-26T07:45:36.676Z,4.20
2019-02-26T07:46:38.507Z,5.20
2019-02-26T07:47:36.659Z,4.50
2019-02-26T07:48:36.649Z,4.90
2019-02-26T07:49:36.633Z,4.90
2019-02-26T07:50:39.682Z,5.00
2019-02-26T07:51:38.570Z,4.60
2019-02-26T07:52:36.606Z,4.80
2019-02-26T07:53:36.593Z,4.90
2019-02-26T07:54:37.763Z,4.90
2019-02-26T07:55:38.331Z,4.80
2019-02-26T07:56:36.568Z,4.60
2019-02-26T07:57:36.554Z,4.70
2019-02-26T07:58:38.473Z,4.70
2019-02-26T07:59:36.944Z,4.40
2019-02-26T08:00:37.738Z,4.50
2019-02-26T08:01:37.589Z,4.90
2019-02-26T08:02:37.278Z,4.80
2019-02-26T08:03:36.487Z,4.60
2019-02-26T08:04:38.759Z,4.50
2019-02-26T08:05:36.473Z,4.90
2019-02-26T08:06:38.373Z,4.80
2019-02-26T08:07:36.430Z,4.70
2019-02-26T08:08:37.526Z,4.50
2019-02-26T08:09:36.429Z,4.70
2019-02-26T08:10:39.360Z,4.80
2019-02-26T08:11:38.707Z,4.60
2019-02-26T08:12:38.061Z,4.80
2019-02-26T08:13:36.625Z,4.50
2019-02-26T08:14:37.959Z,4.70
2019-02-26T08:15:37.557Z,4.50
2019-02-26T08:16:36.341Z,5.00
2019-02-26T08:17:36.334Z,4.50
2019-02-26T08:18:36.326Z,4.70
2019-02-26T08:19:37.435Z,4.60
2019-02-26T08:20:37.705Z,4.60
2019-02-26T08:21:36.281Z,4.30
2019-02-26T08:22:36.357Z,4.30
2019-02-26T08:23:36.265Z,4.50
2019-02-26T08:24:36.253Z,4.80
2019-02-26T08:25:36.239Z,4.50
2019-02-26T08:26:38.114Z,4.70
2019-02-26T08:27:37.886Z,4.80
2019-02-26T08:28:38.463Z,5.00
2019-02-26T08:29:36.332Z,5.00
2019-02-26T08:30:40.176Z,4.60
2019-02-26T08:31:37.187Z,4.40
2019-02-26T08:32:36.172Z,5.00
2019-02-26T08:33:36.161Z,5.00
2019-02-26T08:34:39.189Z,4.50
2019-02-26T08:35:36.144Z,4.80
2019-02-26T08:36:36.145Z,5.00
2019-02-26T08:37:36.119Z,5.60
2019-02-26T08:38:36.108Z,5.00
2019-02-26T08:39:37.891Z,5.10
2019-02-26T08:40:36.090Z,5.50
2019-02-26T08:41:36.094Z,5.20
2019-02-26T08:42:36.067Z,5.70
2019-02-26T08:43:36.060Z,5.00
2019-02-26T08:44:36.040Z,5.10
2019-02-26T08:45:36.030Z,5.00
2019-02-26T08:46:37.866Z,5.60
2019-02-26T08:47:36.006Z,5.10
2019-02-26T08:48:36.002Z,5.40
2019-02-26T08:49:37.836Z,5.00
2019-02-26T08:50:36.807Z,5.30
2019-02-26T08:51:35.979Z,5.70
2019-02-26T08:52:35.955Z,5.60
2019-02-26T08:53:35.937Z,5.50
2019-02-26T08:54:35.978Z,5.60
2019-02-26T08:55:35.924Z,5.30
2019-02-26T08:56:36.901Z,4.90
2019-02-26T08:57:35.912Z,5.40
2019-02-26T08:58:35.881Z,5.40
2019-02-26T08:59:35.898Z,5.30
2019-02-26T09:00:35.867Z,5.30
2019-02-26T09:01:35.856Z,4.70
2019-02-26T09:02:35.861Z,5.10
2019-02-26T09:03:40.622Z,5.00
2019-02-26T09:04:38.321Z,5.10
2019-02-26T09:05:36.815Z,5.10
2019-02-26T09:06:35.795Z,4.90
2019-02-26T09:07:37.546Z,5.20
2019-02-26T09:08:37.989Z,5.00
2019-02-26T09:09:35.775Z,5.20
2019-02-26T09:10:36.408Z,5.10
2019-02-26T09:11:36.987Z,5.20
2019-02-26T09:12:35.730Z,5.20
2019-02-26T09:13:37.043Z,4.90
2019-02-26T09:14:37.635Z,5.50
2019-02-26T09:15:36.637Z,5.10
2019-02-26T09:16:35.700Z,5.30
2019-02-26T09:17:37.366Z,5.50
2019-02-26T09:18:38.154Z,5.30
2019-02-26T09:19:37.848Z,5.50
2019-02-26T09:20:35.677Z,5.30
2019-02-26T09:21:36.947Z,5.40
2019-02-26T09:22:35.631Z,5.40
2019-02-26T09:23:35.618Z,5.70
2019-02-26T09:24:35.605Z,4.80
2019-02-26T09:25:35.595Z,5.20
2019-02-26T09:26:35.626Z,5.20
2019-02-26T09:27:42.574Z,4.70
2019-02-26T09:28:36.572Z,5.10
2019-02-26T09:29:36.645Z,5.10
2019-02-26T09:30:36.471Z,4.90
2019-02-26T09:31:35.539Z,5.40
2019-02-26T09:32:37.403Z,5.10
2019-02-26T09:33:38.097Z,5.30
2019-02-26T09:34:37.829Z,4.90
2019-02-26T09:35:35.483Z,5.00
2019-02-26T09:36:35.470Z,5.20
2019-02-26T09:37:35.474Z,5.60
2019-02-26T09:38:35.447Z,5.40
2019-02-26T09:39:36.513Z,6.10
2019-02-26T09:40:35.710Z,5.70
2019-02-26T09:41:37.420Z,5.90
2019-02-26T09:42:35.414Z,5.70
2019-02-26T09:43:36.284Z,5.40
2019-02-26T09:44:35.958Z,6.10
2019-02-26T09:45:35.401Z,5.90
2019-02-26T09:46:36.343Z,5.70
2019-02-26T09:47:35.367Z,5.90
2019-02-26T09:48:35.840Z,5.70
2019-02-26T09:49:35.841Z,5.60
2019-02-26T09:50:36.708Z,5.90
2019-02-26T09:51:37.360Z,5.30
2019-02-26T09:52:35.311Z,5.80
2019-02-26T09:53:35.289Z,5.40
2019-02-26T09:54:40.315Z,5.60
2019-02-26T09:55:36.266Z,5.60
2019-02-26T09:56:35.253Z,5.50
2019-02-26T09:57:35.243Z,6.00
2019-02-26T09:58:37.351Z,5.50
2019-02-26T09:59:35.966Z,6.20
2019-02-26T10:00:35.222Z,5.30
2019-02-26T10:01:35.894Z,5.80
2019-02-26T10:02:35.207Z,6.00
2019-02-26T10:03:38.552Z,5.90
2019-02-26T10:04:35.188Z,5.80
2019-02-26T10:05:35.174Z,5.50
2019-02-26T10:06:37.371Z,5.80
2019-02-26T10:07:36.230Z,5.50
2019-02-26T10:08:35.120Z,6.00
2019-02-26T10:09:37.407Z,5.90
2019-02-26T10:10:37.531Z,6.00
2019-02-26T10:11:35.102Z,5.50
2019-02-26T10:12:36.949Z,5.50
2019-02-26T10:13:35.066Z,5.80
2019-02-26T10:14:35.853Z,5.20
2019-02-26T10:15:37.332Z,5.50
2019-02-26T10:16:35.026Z,5.60
2019-02-26T10:17:37.098Z,5.30
2019-02-26T10:18:35.006Z,5.70
2019-02-26T10:19:35.656Z,6.00
2019-02-26T10:20:35.533Z,5.40
2019-02-26T10:21:37.301Z,5.30
2019-02-26T10:22:36.162Z,5.30
2019-02-26T10:23:34.965Z,5.50
2019-02-26T10:24:37.217Z,5.80
2019-02-26T10:25:38.547Z,5.30
2019-02-26T10:26:36.662Z,5.50
2019-02-26T10:27:36.175Z,4.90
2019-02-26T10:28:37.309Z,5.30
2019-02-26T10:29:36.884Z,5.40
2019-02-26T10:30:36.991Z,5.50
2019-02-26T10:31:34.856Z,5.30
2019-02-26T10:32:34.858Z,5.50
2019-02-26T10:33:37.944Z,5.80
2019-02-26T10:34:34.831Z,6.00
2019-02-26T10:35:36.237Z,5.70
2019-02-26T10:36:39.020Z,5.40
2019-02-26T10:37:38.251Z,5.50
2019-02-26T10:38:36.518Z,5.30
2019-02-26T10:39:34.807Z,5.40
2019-02-26T10:40:47.184Z,5.20
2019-02-26T10:41:36.951Z,5.60
2019-02-26T10:42:39.845Z,5.50
2019-02-26T10:43:35.740Z,5.50
2019-02-26T10:44:34.739Z,5.50
2019-02-26T10:45:38.565Z,5.00
2019-02-26T10:46:37.078Z,5.30
2019-02-26T10:47:34.826Z,5.30
2019-02-26T10:48:34.665Z,5.00
2019-02-26T10:49:34.670Z,5.40
2019-02-26T10:50:36.702Z,5.30
2019-02-26T10:51:34.660Z,5.10
2019-02-26T10:52:34.634Z,5.20
2019-02-26T10:53:34.629Z,5.30
2019-02-26T10:54:39.541Z,5.60
2019-02-26T10:55:39.279Z,5.60
2019-02-26T10:56:39.198Z,5.40
2019-02-26T10:57:36.236Z,5.10
2019-02-26T10:58:34.570Z,5.60
2019-02-26T10:59:34.563Z,5.10
2019-02-26T11:00:37.624Z,5.20
2019-02-26T11:01:35.433Z,5.40
2019-02-26T11:02:34.539Z,5.20
2019-02-26T11:03:37.955Z,5.10
2019-02-26T11:04:38.103Z,5.60
2019-02-26T11:05:37.212Z,5.50
2019-02-26T11:06:38.289Z,5.50
2019-02-26T11:07:35.609Z,5.20
2019-02-26T11:08:35.109Z,5.00
2019-02-26T11:09:34.461Z,5.50
2019-02-26T11:10:34.439Z,4.80
2019-02-26T11:11:35.650Z,5.50
2019-02-26T11:12:34.417Z,5.30
2019-02-26T11:13:34.415Z,4.80
2019-02-26T11:14:36.236Z,5.00
2019-02-26T11:15:36.030Z,5.30
2019-02-26T11:16:35.831Z,5.00
2019-02-26T11:17:34.372Z,4.50
2019-02-26T11:18:35.180Z,5.00
2019-02-26T11:19:38.297Z,4.60
2019-02-26T11:20:34.706Z,4.30
2019-02-26T11:21:34.321Z,4.60
2019-02-26T11:22:34.321Z,4.80
2019-02-26T11:23:36.237Z,4.60
2019-02-26T11:24:36.160Z,4.70
2019-02-26T11:25:34.259Z,4.70
2019-02-26T11:26:35.942Z,4.60
2019-02-26T11:27:35.776Z,4.80
2019-02-26T11:28:37.869Z,4.90
2019-02-26T11:29:36.408Z,4.70
2019-02-26T11:30:34.213Z,4.00
2019-02-26T11:31:36.150Z,4.50
2019-02-26T11:32:37.899Z,4.40
2019-02-26T11:33:35.171Z,4.10
2019-02-26T11:34:36.275Z,3.60
2019-02-26T11:35:34.154Z,3.70
2019-02-26T11:36:36.540Z,3.70
2019-02-26T11:37:34.151Z,3.60
2019-02-26T11:38:35.308Z,3.80
2019-02-26T11:39:34.110Z,3.40
2019-02-26T11:40:34.100Z,3.00
2019-02-26T11:41:35.921Z,4.20
2019-02-26T11:42:34.085Z,4.20
2019-02-26T11:43:34.085Z,3.90
2019-02-26T11:44:34.059Z,3.70
2019-02-26T11:45:35.156Z,4.00
2019-02-26T11:46:34.422Z,3.80
2019-02-26T11:47:36.362Z,4.10
2019-02-26T11:48:34.045Z,3.80
2019-02-26T11:49:36.345Z,3.90
2019-02-26T11:50:33.987Z,4.00
2019-02-26T11:51:37.171Z,3.60
2019-02-26T11:52:36.500Z,3.60
2019-02-26T11:53:33.957Z,3.50
2019-02-26T11:54:35.054Z,3.90
2019-02-26T11:55:35.149Z,3.30
2019-02-26T11:56:33.914Z,3.20
2019-02-26T11:57:37.035Z,2.90
2019-02-26T11:58:33.907Z,3.40
2019-02-26T11:59:35.624Z,3.60
2019-02-26T12:00:36.509Z,4.10
2019-02-26T12:01:36.902Z,3.80
2019-02-26T12:02:36.154Z,3.70
2019-02-26T12:03:36.370Z,3.60
2019-02-26T12:04:33.826Z,3.70
2019-02-26T12:05:35.942Z,3.70
2019-02-26T12:06:33.809Z,3.70
2019-02-26T12:07:34.834Z,3.80
2019-02-26T12:08:33.802Z,3.60
2019-02-26T12:09:35.690Z,3.90
2019-02-26T12:10:37.184Z,3.60
2019-02-26T12:11:33.776Z,3.50
2019-02-26T12:12:36.170Z,3.60
2019-02-26T12:13:33.767Z,3.00
2019-02-26T12:14:34.712Z,3.60
2019-02-26T12:15:36.278Z,3.80
2019-02-26T12:16:33.708Z,3.60
2019-02-26T12:17:33.716Z,3.70
2019-02-26T12:18:34.309Z,3.80
2019-02-26T12:19:34.391Z,4.00
2019-02-26T12:20:35.564Z,4.40
2019-02-26T12:21:34.572Z,4.00
2019-02-26T12:22:33.654Z,4.00
2019-02-26T12:23:34.501Z,3.70
2019-02-26T12:24:35.551Z,3.90
2019-02-26T12:25:33.609Z,4.30
2019-02-26T12:26:33.601Z,3.30
2019-02-26T12:27:36.022Z,3.70
2019-02-26T12:28:37.173Z,8.60
2019-02-26T12:29:33.593Z,5.80
2019-02-26T12:30:35.019Z,4.00
2019-02-26T12:31:34.611Z,3.30
2019-02-26T12:32:33.554Z,3.00
2019-02-26T12:33:33.542Z,2.50
2019-02-26T12:34:35.180Z,2.60
2019-02-26T12:35:35.477Z,2.90
2019-02-26T12:36:35.374Z,2.70
2019-02-26T12:37:33.484Z,2.70
2019-02-26T12:38:36.619Z,2.70
2019-02-26T12:39:33.469Z,3.00
2019-02-26T12:40:33.453Z,2.80
2019-02-26T12:41:36.084Z,3.20
2019-02-26T12:42:33.415Z,2.40
2019-02-26T12:43:36.469Z,2.30
2019-02-26T12:44:37.425Z,2.30
2019-02-26T12:45:35.134Z,2.40
2019-02-26T12:46:33.849Z,2.40
2019-02-26T12:47:33.365Z,2.40
2019-02-26T12:48:35.188Z,2.70
2019-02-26T12:49:36.538Z,2.60
2019-02-26T12:50:36.641Z,2.50
2019-02-26T12:51:35.457Z,2.40
2019-02-26T12:52:33.313Z,2.70
2019-02-26T12:53:35.819Z,2.40
2019-02-26T12:54:37.024Z,2.10
2019-02-26T12:55:35.838Z,2.70
2019-02-26T12:56:36.791Z,2.40
2019-02-26T12:57:33.279Z,2.40
2019-02-26T12:58:33.240Z,2.40
2019-02-26T12:59:33.227Z,2.90
2019-02-26T13:00:34.981Z,3.00
2019-02-26T13:01:33.410Z,2.30
2019-02-26T13:02:33.194Z,2.70
2019-02-26T13:03:38.126Z,2.50
2019-02-26T13:04:34.178Z,2.20
2019-02-26T13:05:35.219Z,2.80
2019-02-26T13:06:34.390Z,2.20
2019-02-26T13:07:33.140Z,2.30
2019-02-26T13:08:33.134Z,2.40
2019-02-26T13:09:33.115Z,2.40
2019-02-26T13:10:33.105Z,2.00
2019-02-26T13:11:33.102Z,2.40
2019-02-26T13:12:33.101Z,2.40
2019-02-26T13:13:33.070Z,2.40
2019-02-26T13:14:33.067Z,2.10
2019-02-26T13:15:33.056Z,2.10
2019-02-26T13:16:33.051Z,2.20
2019-02-26T13:17:33.068Z,2.00
2019-02-26T13:18:33.024Z,2.70